createdAt,value
2022-12-11T16:18:18.241Z,14.57
2022-12-11T16:20:46.043Z,17.58
2022-12-11T16:23:14.382Z,20.42
2022-12-11T16:25:46.125Z,16.58
2022-12-11T16:28:15.607Z,16.05
2022-12-11T16:30:43.560Z,20.65
2022-12-11T16:33:13.648Z,17.75
2022-12-11T16:35:41.749Z,16.60
2022-12-11T16:38:09.969Z,15.07
2022-12-11T16:40:38.152Z,12.00
2022-12-11T16:43:05.186Z,10.00
2022-12-11T16:45:32.354Z,11.15
2022-12-11T16:47:59.001Z,12.05
2022-12-11T16:50:26.027Z,13.68
2022-12-11T16:52:54.678Z,15.30
2022-12-11T16:55:22.379Z,17.35
2022-12-11T16:57:49.205Z,15.82
2022-12-11T17:00:19.289Z,14.80
2022-12-11T17:02:45.934Z,17.33
2022-12-11T17:05:12.939Z,19.42
2022-12-11T17:07:43.309Z,16.13
2022-12-11T17:10:10.272Z,16.13
2022-12-11T17:12:36.872Z,10.88
2022-12-11T17:15:05.047Z,13.10
2022-12-11T17:17:32.189Z,12.65
2022-12-11T17:19:58.806Z,11.48
2022-12-11T17:22:25.541Z,9.40
2022-12-11T17:24:52.240Z,9.55
2022-12-11T17:27:18.776Z,9.25
2022-12-11T17:29:45.461Z,8.38
2022-12-11T17:32:16.157Z,10.43
2022-12-11T17:34:42.716Z,9.27
2022-12-11T17:37:09.380Z,9.65
2022-12-11T17:39:37.368Z,11.43
2022-12-11T17:42:04.074Z,11.50
2022-12-11T17:44:31.243Z,9.98
2022-12-11T17:46:58.806Z,10.43
2022-12-11T17:49:26.073Z,10.15
2022-12-11T17:51:55.529Z,10.75
2022-12-11T17:54:24.482Z,7.93
2022-12-11T17:56:51.148Z,19.20
2022-12-11T17:59:17.818Z,14.38
2022-12-11T18:01:44.606Z,13.20
2022-12-11T18:04:11.274Z,11.85
2022-12-11T18:06:37.879Z,14.27
2022-12-11T18:09:07.809Z,19.92
2022-12-11T18:11:34.801Z,11.63
2022-12-11T18:14:05.656Z,11.73
2022-12-11T18:16:36.884Z,12.07
2022-12-11T18:21:57.711Z,9.48
2022-12-11T18:24:31.596Z,6.80
2022-12-11T18:27:00.118Z,7.57
2022-12-11T18:29:26.769Z,7.60
2022-12-11T18:31:53.401Z,7.88
2022-12-11T18:34:20.299Z,6.35
2022-12-11T18:36:46.862Z,8.35
2022-12-11T18:39:13.573Z,12.52
2022-12-11T18:41:41.101Z,10.70
2022-12-11T18:44:10.003Z,13.70
2022-12-11T18:46:39.499Z,11.32
2022-12-11T18:49:07.532Z,11.80
2022-12-11T18:51:34.212Z,60.78
2022-12-11T18:54:00.814Z,59.45
2022-12-11T18:56:31.270Z,58.03
2022-12-11T18:58:57.849Z,55.08
2022-12-11T19:01:26.867Z,41.03
2022-12-11T19:04:02.028Z,29.15
2022-12-11T19:06:30.430Z,12.02
2022-12-11T19:08:57.888Z,12.25
2022-12-11T19:11:27.317Z,10.73
2022-12-11T19:13:56.660Z,9.85
2022-12-11T19:16:35.133Z,15.73
2022-12-11T19:19:05.747Z,12.88
2022-12-11T19:21:33.874Z,12.32
2022-12-11T19:24:04.002Z,11.93
2022-12-11T19:26:30.981Z,10.45
2022-12-11T19:29:02.004Z,10.95
2022-12-11T19:31:30.814Z,15.82
2022-12-11T19:33:58.161Z,11.90
2022-12-11T19:36:26.742Z,12.73
2022-12-11T19:39:00.960Z,13.57
2022-12-11T19:41:28.342Z,11.35
2022-12-11T19:43:56.369Z,12.60
2022-12-11T19:46:24.160Z,11.80
2022-12-11T19:48:53.810Z,12.65
2022-12-11T19:51:24.036Z,15.23
2022-12-11T19:53:51.370Z,13.07
2022-12-11T19:56:18.792Z,13.30
2022-12-11T19:58:47.304Z,12.25
2022-12-11T20:01:26.007Z,11.35
2022-12-11T20:03:54.474Z,11.70
2022-12-11T20:06:21.410Z,12.80
2022-12-11T20:08:48.119Z,14.07
2022-12-11T20:11:19.279Z,11.88
2022-12-11T20:13:49.929Z,12.32
2022-12-11T20:16:28.911Z,15.93
2022-12-11T20:19:08.346Z,15.15
2022-12-11T20:21:35.705Z,13.00
2022-12-11T20:24:02.260Z,12.63
2022-12-11T20:26:31.058Z,12.60
2022-12-11T20:28:57.830Z,12.68
2022-12-11T20:31:25.992Z,8.50
2022-12-11T20:33:56.787Z,11.65
2022-12-11T20:36:24.214Z,11.38
2022-12-11T20:38:51.618Z,14.52
2022-12-11T20:41:21.676Z,16.23
2022-12-11T20:43:54.543Z,17.13
2022-12-11T20:46:25.145Z,21.42
2022-12-11T20:48:52.681Z,20.27
2022-12-11T20:51:26.168Z,22.27
2022-12-11T20:53:58.889Z,25.63
2022-12-11T20:56:29.366Z,19.83
2022-12-11T20:58:56.998Z,21.55
2022-12-11T21:01:25.020Z,23.92
2022-12-11T21:03:54.300Z,21.55
2022-12-11T21:06:25.386Z,21.90
2022-12-11T21:08:53.088Z,24.90
2022-12-11T21:11:22.092Z,23.92
2022-12-11T21:13:49.237Z,21.50
2022-12-11T21:16:18.624Z,22.38
2022-12-11T21:18:47.593Z,21.63
2022-12-11T21:21:15.043Z,17.00
2022-12-11T21:23:42.296Z,18.38
2022-12-11T21:26:09.128Z,16.58
2022-12-11T21:28:35.969Z,17.50
2022-12-11T21:31:08.846Z,14.10
2022-12-11T21:33:35.662Z,12.23
2022-12-11T21:36:03.126Z,15.68
2022-12-11T21:38:30.124Z,14.18
2022-12-11T21:40:56.934Z,13.27
2022-12-11T21:43:24.896Z,13.30
2022-12-11T21:46:01.508Z,12.27
2022-12-11T21:48:28.856Z,16.63
2022-12-11T21:50:55.473Z,12.10
2022-12-11T21:53:22.060Z,12.48
2022-12-11T21:55:49.427Z,12.68
2022-12-11T21:58:15.973Z,11.95
2022-12-11T22:00:42.645Z,12.20
2022-12-11T22:03:09.386Z,12.20
2022-12-11T22:05:35.931Z,10.93
2022-12-11T22:08:02.595Z,11.57
2022-12-11T22:10:29.671Z,10.70
2022-12-11T22:12:56.409Z,11.40
2022-12-11T22:15:23.133Z,10.57
2022-12-11T22:17:49.962Z,14.63
2022-12-11T22:20:16.563Z,18.30
2022-12-11T22:22:43.164Z,11.75
2022-12-11T22:25:10.201Z,16.25
2022-12-11T22:27:36.942Z,20.05
2022-12-11T22:30:04.343Z,16.92
2022-12-11T22:32:30.957Z,14.43
2022-12-11T22:34:57.918Z,13.38
2022-12-11T22:37:25.157Z,12.68
2022-12-11T22:39:52.717Z,11.90
2022-12-11T22:42:19.498Z,14.38
2022-12-11T22:44:46.288Z,12.90
2022-12-11T22:47:12.901Z,15.00
2022-12-11T22:49:39.444Z,13.55
2022-12-11T22:52:06.107Z,12.57
2022-12-11T22:54:32.739Z,17.98
2022-12-11T22:56:59.313Z,11.27
2022-12-11T22:59:25.933Z,15.90
2022-12-11T23:01:52.556Z,16.10
2022-12-11T23:04:19.147Z,13.82
2022-12-11T23:06:45.740Z,14.77
2022-12-11T23:09:12.777Z,14.52
2022-12-11T23:11:40.149Z,18.63
2022-12-11T23:14:08.964Z,13.73
2022-12-11T23:16:35.693Z,16.38
2022-12-11T23:19:03.877Z,16.08
2022-12-11T23:21:30.551Z,17.05
2022-12-11T23:23:58.144Z,18.95
2022-12-11T23:26:27.287Z,17.52
2022-12-11T23:28:55.341Z,18.70
2022-12-11T23:31:23.847Z,17.38
2022-12-11T23:33:51.005Z,14.20
2022-12-11T23:36:18.465Z,15.73
2022-12-11T23:38:49.559Z,15.45
2022-12-11T23:41:19.352Z,16.52
2022-12-11T23:43:45.918Z,18.92
2022-12-11T23:46:19.541Z,21.05
2022-12-11T23:48:46.290Z,20.70
2022-12-11T23:51:15.751Z,17.20
2022-12-11T23:53:43.791Z,18.40
2022-12-11T23:56:16.162Z,19.67
2022-12-11T23:58:43.105Z,18.73
